PWSweather.com
Personal Weather Stations
Station Observations
KWAGIGHA17
Gig Harbor, WA 98332

Gig Harbor, WA 98332

Lat: 47.35323, Lon: -122.58817

Elevation: 318

Station Type: Davis VP2 Wireless

http://www.gigharborweather.com

Latest ConditionsUpdated 5:30:01 PM PDT Sunday, Mar 26, 2017
Currently Today's Max Today's Min Today's Average
Temperature 46.3°F7.9°C 46.8°F8.2°C 41.3°F5.2°C 43.5°F6.4°C
Dew Point 43.2°F6.2°C 43.7°F6.5°C 36.5°F2.5°C 40.0°F4.4°C
Winds Calm Calm 1.2 mph SW1.9 kmh SW - 0.0 mph 0.0 kmh
Wind Gusts -- 2.3 mph3.7 kmh - -
Humidity 89% 90% 78% 88%
Pressure 29.73 in1006.8 mb 30.00 in1015.9 mb 29.73 in1006.8 mb -
Precipitation - 0.46 in11.7 mm - -
Hour Temp Dew Point Humidity Winds Wind Gusts Pressure Precip Precip Rate Daily Precip Total
05:30 PM 46.3°F7.9°C 43.2°F6.2°C 89% Calm Calm -- 29.73 in1006.8 mb - 0.00 in0.0 mm 0.46 in11.7 mm
05:20 PM 46.4°F8.0°C 43.3°F6.3°C 89% Calm Calm -- 29.73 in1006.8 mb - 0.00 in0.0 mm 0.46 in11.7 mm
05:10 PM 46.4°F8.0°C 43.3°F6.3°C 89% Calm Calm -- 29.73 in1006.8 mb - 0.00 in0.0 mm 0.46 in11.7 mm
05:00 PM 46.4°F8.0°C 43.3°F6.3°C 89% Calm Calm -- 29.73 in1006.8 mb - 0.01 in0.3 mm 0.46 in11.7 mm
04:50 PM 46.4°F8.0°C 43.3°F6.3°C 89% Calm Calm -- 29.73 in1006.8 mb - 0.00 in0.0 mm 0.45 in11.4 mm
04:40 PM 46.5°F8.1°C 43.4°F6.3°C 89% Calm Calm -- 29.73 in1006.8 mb - 0.01 in0.3 mm 0.45 in11.4 mm
04:30 PM 46.5°F8.1°C 43.4°F6.3°C 89% Calm Calm -- 29.73 in1006.8 mb - 0.00 in0.0 mm 0.44 in11.2 mm
04:20 PM 46.6°F8.1°C 43.5°F6.4°C 89% Calm Calm -- 29.73 in1006.8 mb - 0.01 in0.3 mm 0.44 in11.2 mm
04:10 PM 46.8°F8.2°C 43.7°F6.5°C 89% Calm Calm -- 29.73 in1006.8 mb - 0.00 in0.0 mm 0.43 in10.9 mm
04:00 PM 46.7°F8.2°C 43.6°F6.4°C 89% Calm Calm -- 29.74 in1007.1 mb - 0.01 in0.3 mm 0.43 in10.9 mm
03:50 PM 46.8°F8.2°C 43.7°F6.5°C 89% Calm Calm -- 29.74 in1007.1 mb - 0.01 in0.3 mm 0.42 in10.7 mm
03:40 PM 46.7°F8.2°C 43.6°F6.4°C 89% Calm Calm -- 29.74 in1007.1 mb - 0.01 in0.3 mm 0.41 in10.4 mm
03:30 PM 46.6°F8.1°C 43.6°F6.4°C 89% Calm Calm -- 29.74 in1007.1 mb - 0.01 in0.3 mm 0.40 in10.2 mm
03:20 PM 46.5°F8.1°C 43.4°F6.3°C 89% Calm Calm -- 29.74 in1007.1 mb - 0.01 in0.3 mm 0.39 in9.9 mm
03:10 PM 46.1°F7.8°C 43.4°F6.3°C 90% Calm Calm -- 29.74 in1007.1 mb - 0.00 in0.0 mm 0.38 in9.7 mm
03:00 PM 45.9°F7.7°C 43.2°F6.2°C 90% Calm Calm 2.3 mph3.7 kmh 29.75 in1007.5 mb - 0.01 in0.3 mm 0.38 in9.7 mm
02:50 PM 45.8°F7.7°C 42.8°F6.0°C 89% Calm Calm -- 29.75 in1007.5 mb - 0.01 in0.3 mm 0.37 in9.4 mm
02:40 PM 45.9°F7.7°C 42.8°F6.0°C 89% Calm Calm -- 29.75 in1007.5 mb - 0.01 in0.3 mm 0.36 in9.1 mm
02:30 PM 45.9°F7.7°C 42.8°F6.0°C 89% Calm Calm -- 29.75 in1007.5 mb - 0.01 in0.3 mm 0.35 in8.9 mm
02:20 PM 45.9°F7.7°C 43.1°F6.2°C 90% Calm Calm -- 29.75 in1007.5 mb - 0.00 in0.0 mm 0.34 in8.6 mm
02:10 PM 45.7°F7.6°C 42.9°F6.1°C 90% Calm Calm -- 29.75 in1007.5 mb - 0.01 in0.3 mm 0.34 in8.6 mm
02:00 PM 45.6°F7.6°C 42.8°F6.0°C 90% Calm Calm -- 29.75 in1007.5 mb - 0.02 in0.5 mm 0.33 in8.4 mm
01:50 PM 45.6°F7.6°C 42.8°F6.0°C 90% Calm Calm -- 29.76 in1007.8 mb - 0.02 in0.5 mm 0.32 in8.1 mm
01:40 PM 45.6°F7.6°C 42.8°F6.0°C 90% Calm Calm -- 29.76 in1007.8 mb - 0.01 in0.3 mm 0.30 in7.6 mm
01:30 PM 45.6°F7.6°C 42.8°F6.0°C 90% Calm Calm -- 29.76 in1007.8 mb - 0.01 in0.3 mm 0.29 in7.4 mm
01:20 PM 45.7°F7.6°C 42.9°F6.1°C 90% 1.2 mph SW1.9 kmh SW 2.3 mph3.7 kmh 29.76 in1007.8 mb - 0.02 in0.5 mm 0.28 in7.1 mm
01:10 PM 45.8°F7.7°C 43.0°F6.1°C 90% Calm Calm 1.2 mph1.9 kmh 29.76 in1007.8 mb - 0.01 in0.3 mm 0.26 in6.6 mm
01:00 PM 45.8°F7.7°C 43.0°F6.1°C 90% Calm Calm -- 29.76 in1007.8 mb - 0.01 in0.3 mm 0.25 in6.4 mm
12:50 PM 45.6°F7.6°C 42.8°F6.0°C 90% Calm Calm -- 29.76 in1007.8 mb - 0.01 in0.3 mm 0.24 in6.1 mm
12:40 PM 45.5°F7.5°C 42.7°F5.9°C 90% Calm Calm -- 29.76 in1007.8 mb - 0.01 in0.3 mm 0.23 in5.8 mm
12:30 PM 45.4°F7.4°C 42.6°F5.9°C 90% Calm Calm -- 29.76 in1007.8 mb - 0.00 in0.0 mm 0.22 in5.6 mm
12:20 PM 45.1°F7.3°C 42.1°F5.6°C 89% Calm Calm -- 29.76 in1007.8 mb - 0.01 in0.3 mm 0.22 in5.6 mm
12:10 PM 44.7°F7.1°C 41.7°F5.4°C 89% Calm Calm 1.2 mph1.9 kmh 29.76 in1007.8 mb - 0.01 in0.3 mm 0.21 in5.3 mm
12:00 PM 44.4°F6.9°C 41.6°F5.3°C 90% Calm Calm -- 29.77 in1008.1 mb - 0.00 in0.0 mm 0.20 in5.1 mm
11:50 AM 44.2°F6.8°C 41.4°F5.2°C 90% Calm Calm -- 29.77 in1008.1 mb - 0.01 in0.3 mm 0.20 in5.1 mm
11:40 AM 44.0°F6.7°C 41.0°F5.0°C 89% Calm Calm -- 29.78 in1008.5 mb - 0.01 in0.3 mm 0.19 in4.8 mm
11:30 AM 43.8°F6.6°C 41.1°F5.1°C 90% Calm Calm 1.2 mph1.9 kmh 29.78 in1008.5 mb - 0.00 in0.0 mm 0.18 in4.6 mm
11:20 AM 43.6°F6.4°C 40.9°F4.9°C 90% Calm Calm -- 29.78 in1008.5 mb - 0.01 in0.3 mm 0.18 in4.6 mm
11:10 AM 43.5°F6.4°C 40.5°F4.7°C 89% Calm Calm -- 29.79 in1008.8 mb - 0.01 in0.3 mm 0.17 in4.3 mm
11:00 AM 43.4°F6.3°C 40.4°F4.7°C 89% Calm Calm -- 29.79 in1008.8 mb - 0.01 in0.3 mm 0.16 in4.1 mm
10:50 AM 43.4°F6.3°C 40.4°F4.7°C 89% Calm Calm -- 29.80 in1009.1 mb - 0.01 in0.3 mm 0.15 in3.8 mm
10:40 AM 43.4°F6.3°C 40.4°F4.7°C 89% Calm Calm -- 29.80 in1009.1 mb - 0.00 in0.0 mm 0.14 in3.6 mm
10:30 AM 43.4°F6.3°C 40.4°F4.7°C 89% Calm Calm -- 29.81 in1009.5 mb - 0.01 in0.3 mm 0.14 in3.6 mm
10:20 AM 43.2°F6.2°C 40.5°F4.7°C 90% Calm Calm -- 29.81 in1009.5 mb - 0.01 in0.3 mm 0.13 in3.3 mm
10:10 AM 43.1°F6.2°C 40.4°F4.7°C 90% Calm Calm -- 29.82 in1009.8 mb - 0.00 in0.0 mm 0.12 in3.0 mm
10:00 AM 42.9°F6.1°C 39.9°F4.4°C 89% Calm Calm -- 29.82 in1009.8 mb - 0.01 in0.3 mm 0.12 in3.0 mm
09:50 AM 42.8°F6.0°C 39.8°F4.3°C 89% Calm Calm -- 29.82 in1009.8 mb - 0.01 in0.3 mm 0.11 in2.8 mm
09:40 AM 42.6°F5.9°C 39.6°F4.2°C 89% Calm Calm -- 29.83 in1010.2 mb - 0.02 in0.5 mm 0.10 in2.5 mm
09:30 AM 42.5°F5.8°C 39.5°F4.2°C 89% Calm Calm -- 29.83 in1010.2 mb - 0.02 in0.5 mm 0.09 in2.3 mm
09:20 AM 42.5°F5.8°C 39.4°F4.1°C 89% Calm Calm -- 29.83 in1010.2 mb - 0.01 in0.3 mm 0.07 in1.8 mm
09:10 AM 42.4°F5.8°C 39.4°F4.1°C 89% Calm Calm -- 29.83 in1010.2 mb - 0.02 in0.5 mm 0.06 in1.5 mm
09:00 AM 42.3°F5.7°C 39.3°F4.1°C 89% Calm Calm -- 29.82 in1009.8 mb - 0.01 in0.3 mm 0.05 in1.3 mm
08:50 AM 42.2°F5.7°C 39.2°F4.0°C 89% Calm Calm -- 29.82 in1009.8 mb - 0.02 in0.5 mm 0.04 in1.0 mm
08:40 AM 42.2°F5.7°C 39.2°F4.0°C 89% Calm Calm -- 29.82 in1009.8 mb - 0.01 in0.3 mm 0.03 in0.8 mm
08:30 AM 42.1°F5.6°C 39.1°F3.9°C 89% 1.2 mph SW1.9 kmh SW 2.3 mph3.7 kmh 29.82 in1009.8 mb - 0.01 in0.3 mm 0.02 in0.5 mm
08:20 AM 41.9°F5.5°C 38.9°F3.8°C 89% Calm Calm -- 29.83 in1010.2 mb - 0.00 in0.0 mm 0.01 in0.3 mm
08:10 AM 41.8°F5.4°C 38.8°F3.8°C 89% Calm Calm -- 29.83 in1010.2 mb - 0.01 in0.3 mm 0.01 in0.3 mm
08:00 AM 41.7°F5.4°C 38.7°F3.7°C 89% Calm Calm -- 29.83 in1010.2 mb - 0.00 in0.0 mm 0.00 in0.0 mm
07:50 AM 41.6°F5.3°C 38.6°F3.7°C 89% Calm Calm -- 29.83 in1010.2 mb - 0.00 in0.0 mm 0.00 in0.0 mm
07:40 AM 41.5°F5.3°C 38.5°F3.6°C 89% Calm Calm -- 29.83 in1010.2 mb - 0.00 in0.0 mm 0.00 in0.0 mm
07:30 AM 41.5°F5.3°C 38.5°F3.6°C 89% Calm Calm -- 29.84 in1010.5 mb - 0.00 in0.0 mm 0.00 in0.0 mm
07:20 AM 41.5°F5.3°C 38.5°F3.6°C 89% Calm Calm -- 29.84 in1010.5 mb - 0.00 in0.0 mm 0.00 in0.0 mm
07:10 AM 41.5°F5.3°C 38.5°F3.6°C 89% Calm Calm -- 29.84 in1010.5 mb - 0.00 in0.0 mm 0.00 in0.0 mm
07:00 AM 41.5°F5.3°C 38.5°F3.6°C 89% Calm Calm -- 29.84 in1010.5 mb - 0.00 in0.0 mm 0.00 in0.0 mm
06:50 AM 41.4°F5.2°C 38.4°F3.6°C 89% Calm Calm -- 29.84 in1010.5 mb - 0.00 in0.0 mm 0.00 in0.0 mm
06:40 AM 41.4°F5.2°C 38.1°F3.4°C 88% Calm Calm -- 29.84 in1010.5 mb - 0.00 in0.0 mm 0.00 in0.0 mm
06:30 AM 41.3°F5.2°C 38.0°F3.3°C 88% Calm Calm -- 29.84 in1010.5 mb - 0.00 in0.0 mm 0.00 in0.0 mm
06:20 AM 41.4°F5.2°C 38.1°F3.4°C 88% Calm Calm -- 29.84 in1010.5 mb - 0.00 in0.0 mm 0.00 in0.0 mm
06:10 AM 41.4°F5.2°C 38.1°F3.4°C 88% Calm Calm -- 29.84 in1010.5 mb - 0.00 in0.0 mm 0.00 in0.0 mm
06:00 AM 41.5°F5.3°C 38.2°F3.4°C 88% Calm Calm -- 29.85 in1010.8 mb - 0.00 in0.0 mm 0.00 in0.0 mm
05:50 AM 41.6°F5.3°C 38.3°F3.5°C 88% Calm Calm -- 29.85 in1010.8 mb - 0.00 in0.0 mm 0.00 in0.0 mm
05:40 AM 41.6°F5.3°C 38.3°F3.5°C 88% Calm Calm -- 29.85 in1010.8 mb - 0.00 in0.0 mm 0.00 in0.0 mm
05:30 AM 41.7°F5.4°C 38.4°F3.6°C 88% Calm Calm -- 29.86 in1011.2 mb - 0.00 in0.0 mm 0.00 in0.0 mm
05:20 AM 41.7°F5.4°C 38.4°F3.6°C 88% Calm Calm -- 29.86 in1011.2 mb - 0.00 in0.0 mm 0.00 in0.0 mm
05:10 AM 41.7°F5.4°C 38.4°F3.6°C 88% Calm Calm -- 29.87 in1011.5 mb - 0.00 in0.0 mm 0.00 in0.0 mm
05:00 AM 41.7°F5.4°C 38.1°F3.4°C 87% Calm Calm -- 29.87 in1011.5 mb - 0.00 in0.0 mm 0.00 in0.0 mm
04:50 AM 41.7°F5.4°C 38.1°F3.4°C 87% Calm Calm -- 29.87 in1011.5 mb - 0.00 in0.0 mm 0.00 in0.0 mm
04:40 AM 41.7°F5.4°C 38.1°F3.4°C 87% Calm Calm -- 29.88 in1011.9 mb - 0.00 in0.0 mm 0.00 in0.0 mm
04:30 AM 41.8°F5.4°C 38.2°F3.4°C 87% Calm Calm -- 29.88 in1011.9 mb - 0.00 in0.0 mm 0.00 in0.0 mm
04:20 AM 41.8°F5.4°C 37.9°F3.3°C 86% Calm Calm -- 29.89 in1012.2 mb - 0.00 in0.0 mm 0.00 in0.0 mm
04:10 AM 41.8°F5.4°C 37.9°F3.3°C 86% Calm Calm -- 29.90 in1012.5 mb - 0.00 in0.0 mm 0.00 in0.0 mm
04:00 AM 41.8°F5.4°C 37.9°F3.3°C 86% Calm Calm -- 29.91 in1012.9 mb - 0.00 in0.0 mm 0.00 in0.0 mm
03:50 AM 41.9°F5.5°C 38.0°F3.3°C 86% Calm Calm -- 29.91 in1012.9 mb - 0.00 in0.0 mm 0.00 in0.0 mm
03:40 AM 41.9°F5.5°C 37.7°F3.2°C 85% Calm Calm -- 29.92 in1013.2 mb - 0.00 in0.0 mm 0.00 in0.0 mm
03:30 AM 41.9°F5.5°C 37.7°F3.2°C 85% Calm Calm -- 29.92 in1013.2 mb - 0.00 in0.0 mm 0.00 in0.0 mm
03:20 AM 42.0°F5.6°C 37.8°F3.2°C 85% Calm Calm -- 29.93 in1013.5 mb - 0.00 in0.0 mm 0.00 in0.0 mm
03:10 AM 42.0°F5.6°C 37.8°F3.2°C 85% Calm Calm -- 29.93 in1013.5 mb - 0.00 in0.0 mm 0.00 in0.0 mm
03:00 AM 42.1°F5.6°C 37.6°F3.1°C 84% Calm Calm -- 29.94 in1013.9 mb - 0.00 in0.0 mm 0.00 in0.0 mm
02:50 AM 42.1°F5.6°C 37.6°F3.1°C 84% Calm Calm -- 29.94 in1013.9 mb - 0.00 in0.0 mm 0.00 in0.0 mm
02:40 AM 42.2°F5.7°C 37.7°F3.2°C 84% Calm Calm -- 29.94 in1013.9 mb - 0.00 in0.0 mm 0.00 in0.0 mm
02:30 AM 42.2°F5.7°C 37.7°F3.2°C 84% Calm Calm -- 29.95 in1014.2 mb - 0.00 in0.0 mm 0.00 in0.0 mm
02:20 AM 42.2°F5.7°C 37.4°F3.0°C 83% Calm Calm -- 29.95 in1014.2 mb - 0.00 in0.0 mm 0.00 in0.0 mm
02:10 AM 42.3°F5.7°C 37.5°F3.1°C 83% Calm Calm -- 29.96 in1014.6 mb - 0.00 in0.0 mm 0.00 in0.0 mm
02:00 AM 42.3°F5.7°C 37.5°F3.1°C 83% Calm Calm -- 29.96 in1014.6 mb - 0.00 in0.0 mm 0.00 in0.0 mm
01:50 AM 42.4°F5.8°C 37.3°F2.9°C 82% Calm Calm -- 29.97 in1014.9 mb - 0.00 in0.0 mm 0.00 in0.0 mm
01:40 AM 42.5°F5.8°C 37.4°F3.0°C 82% Calm Calm -- 29.96 in1014.6 mb - 0.00 in0.0 mm 0.00 in0.0 mm
01:30 AM 42.6°F5.9°C 37.5°F3.1°C 82% Calm Calm -- 29.97 in1014.9 mb - 0.00 in0.0 mm 0.00 in0.0 mm
01:20 AM 42.8°F6.0°C 37.7°F3.2°C 82% Calm Calm -- 29.98 in1015.2 mb - 0.00 in0.0 mm 0.00 in0.0 mm
01:10 AM 42.8°F6.0°C 37.7°F3.2°C 82% Calm Calm -- 29.98 in1015.2 mb - 0.00 in0.0 mm 0.00 in0.0 mm
01:00 AM 42.8°F6.0°C 37.7°F3.2°C 82% Calm Calm -- 29.98 in1015.2 mb - 0.00 in0.0 mm 0.00 in0.0 mm
12:50 AM 42.9°F6.1°C 37.8°F3.2°C 82% Calm Calm -- 29.99 in1015.6 mb - 0.00 in0.0 mm 0.00 in0.0 mm
12:40 AM 42.9°F6.1°C 37.5°F3.1°C 81% Calm Calm -- 29.99 in1015.6 mb - 0.00 in0.0 mm 0.00 in0.0 mm
12:30 AM 42.8°F6.0°C 37.4°F3.0°C 81% Calm Calm -- 30.00 in1015.9 mb - 0.00 in0.0 mm 0.00 in0.0 mm
12:20 AM 42.8°F6.0°C 37.1°F2.8°C 80% Calm Calm -- 30.00 in1015.9 mb - 0.00 in0.0 mm 0.00 in0.0 mm
12:10 AM 42.9°F6.1°C 36.8°F2.7°C 79% Calm Calm -- 30.00 in1015.9 mb - 0.00 in0.0 mm 0.00 in0.0 mm
12:00 AM 42.9°F6.1°C 36.5°F2.5°C 78% Calm Calm -- 30.00 in1015.9 mb - 0.00 in0.0 mm 0.00 in0.0 mm